sensor_id;sensor_type;location;lat;lon;timestamp;pressure;altitude;pressure_sealevel;temperature;humidity
55916;BME280;41826;53.246;-6.670;2023-03-21T00:00:26;100002.81;;;10.39;100.00
55916;BME280;41826;53.246;-6.670;2023-03-21T00:02:51;99999.94;;;10.59;100.00
55916;BME280;41826;53.246;-6.670;2023-03-21T00:05:17;100000.22;;;10.48;100.00
55916;BME280;41826;53.246;-6.670;2023-03-21T00:07:45;99997.13;;;10.60;100.00
55916;BME280;41826;53.246;-6.670;2023-03-21T00:10:10;99987.88;;;10.40;100.00
55916;BME280;41826;53.246;-6.670;2023-03-21T00:12:35;99975.09;;;10.37;100.00
55916;BME280;41826;53.246;-6.670;2023-03-21T00:15:05;99954.28;;;10.44;100.00
55916;BME280;41826;53.246;-6.670;2023-03-21T00:17:32;99963.31;;;10.41;100.00
55916;BME280;41826;53.246;-6.670;2023-03-21T00:19:59;99958.88;;;10.41;100.00
55916;BME280;41826;53.246;-6.670;2023-03-21T00:22:25;99949.19;;;10.42;100.00
55916;BME280;41826;53.246;-6.670;2023-03-21T00:24:52;99954.97;;;10.54;100.00
55916;BME280;41826;53.246;-6.670;2023-03-21T00:27:17;99945.09;;;10.39;100.00
55916;BME280;41826;53.246;-6.670;2023-03-21T00:29:46;99951.34;;;10.47;100.00
55916;BME280;41826;53.246;-6.670;2023-03-21T00:32:14;99942.19;;;10.51;100.00
55916;BME280;41826;53.246;-6.670;2023-03-21T00:34:41;99940.84;;;10.55;100.00
55916;BME280;41826;53.246;-6.670;2023-03-21T00:37:07;99938.56;;;10.60;100.00
55916;BME280;41826;53.246;-6.670;2023-03-21T00:39:34;99946.09;;;10.47;100.00
55916;BME280;41826;53.246;-6.670;2023-03-21T00:42:00;99939.84;;;10.48;100.00
55916;BME280;41826;53.246;-6.670;2023-03-21T00:44:25;99944.75;;;10.43;100.00
55916;BME280;41826;53.246;-6.670;2023-03-21T00:46:51;99932.94;;;10.30;100.00
55916;BME280;41826;53.246;-6.670;2023-03-21T00:49:17;99929.16;;;10.33;100.00
55916;BME280;41826;53.246;-6.670;2023-03-21T00:51:44;99919.03;;;10.46;100.00
55916;BME280;41826;53.246;-6.670;2023-03-21T00:54:11;99914.94;;;10.52;100.00
55916;BME280;41826;53.246;-6.670;2023-03-21T00:56:37;99906.75;;;10.47;100.00
55916;BME280;41826;53.246;-6.670;2023-03-21T00:59:02;99911.78;;;10.40;100.00
55916;BME280;41826;53.246;-6.670;2023-03-21T01:01:28;99909.84;;;10.50;100.00
55916;BME280;41826;53.246;-6.670;2023-03-21T01:03:57;99899.50;;;10.40;100.00
55916;BME280;41826;53.246;-6.670;2023-03-21T01:06:27;99894.25;;;10.40;100.00
55916;BME280;41826;53.246;-6.670;2023-03-21T01:08:52;99885.06;;;10.45;100.00
55916;BME280;41826;53.246;-6.670;2023-03-21T01:11:23;99887.69;;;10.53;100.00
55916;BME280;41826;53.246;-6.670;2023-03-21T01:13:50;99878.53;;;10.49;100.00
55916;BME280;41826;53.246;-6.670;2023-03-21T01:16:15;99866.56;;;10.54;100.00
55916;BME280;41826;53.246;-6.670;2023-03-21T01:18:41;99873.09;;;10.50;100.00
55916;BME280;41826;53.246;-6.670;2023-03-21T01:21:09;99865.56;;;10.47;100.00
55916;BME280;41826;53.246;-6.670;2023-03-21T01:23:36;99853.59;;;10.36;100.00
55916;BME280;41826;53.246;-6.670;2023-03-21T01:26:02;99848.34;;;10.36;100.00
55916;BME280;41826;53.246;-6.670;2023-03-21T01:28:28;99853.41;;;10.30;100.00
55916;BME280;41826;53.246;-6.670;2023-03-21T01:30:54;99847.66;;;10.26;100.00
55916;BME280;41826;53.246;-6.670;2023-03-21T01:33:21;99842.41;;;10.26;100.00
55916;BME280;41826;53.246;-6.670;2023-03-21T01:35:47;99841.47;;;10.44;100.00
55916;BME280;41826;53.246;-6.670;2023-03-21T01:38:13;99839.47;;;10.29;100.00
55916;BME280;41826;53.246;-6.670;2023-03-21T01:40:39;99828.00;;;10.30;100.00
55916;BME280;41826;53.246;-6.670;2023-03-21T01:43:27;99823.91;;;10.36;100.00
55916;BME280;41826;53.246;-6.670;2023-03-21T01:48:35;99824.06;;;10.34;100.00
55916;BME280;41826;53.246;-6.670;2023-03-21T01:51:01;99823.75;;;10.29;100.00
55916;BME280;41826;53.246;-6.670;2023-03-21T01:53:29;99826.69;;;10.34;100.00
55916;BME280;41826;53.246;-6.670;2023-03-21T01:56:05;99806.94;;;9.89;100.00
55916;BME280;41826;53.246;-6.670;2023-03-21T01:58:33;99799.44;;;10.03;100.00
55916;BME280;41826;53.246;-6.670;2023-03-21T02:00:59;99806.78;;;9.99;100.00
55916;BME280;41826;53.246;-6.670;2023-03-21T02:03:28;99808.94;;;9.95;100.00
55916;BME280;41826;53.246;-6.670;2023-03-21T02:06:24;99797.78;;;10.02;100.00
55916;BME280;41826;53.246;-6.670;2023-03-21T02:08:55;99796.97;;;10.17;100.00
55916;BME280;41826;53.246;-6.670;2023-03-21T02:11:21;99796.63;;;10.04;100.00
55916;BME280;41826;53.246;-6.670;2023-03-21T02:13:48;99798.78;;;10.01;100.00
55916;BME280;41826;53.246;-6.670;2023-03-21T02:16:42;99797.31;;;9.98;100.00
55916;BME280;41826;53.246;-6.670;2023-03-21T02:24:53;99801.06;;;10.04;100.00
55916;BME280;41826;53.246;-6.670;2023-03-21T02:27:24;99801.72;;;10.06;100.00
55916;BME280;41826;53.246;-6.670;2023-03-21T02:36:00;99799.78;;;10.16;100.00
55916;BME280;41826;53.246;-6.670;2023-03-21T02:39:06;99787.97;;;10.20;100.00
55916;BME280;41826;53.246;-6.670;2023-03-21T02:41:46;99789.59;;;10.05;100.00
55916;BME280;41826;53.246;-6.670;2023-03-21T02:47:23;99768.94;;;10.10;100.00
55916;BME280;41826;53.246;-6.670;2023-03-21T02:49:56;99766.00;;;10.05;100.00
55916;BME280;41826;53.246;-6.670;2023-03-21T02:52:25;99763.69;;;10.10;100.00
55916;BME280;41826;53.246;-6.670;2023-03-21T02:54:54;99761.25;;;10.16;100.00
55916;BME280;41826;53.246;-6.670;2023-03-21T02:57:21;99754.53;;;10.14;100.00
55916;BME280;41826;53.246;-6.670;2023-03-21T02:59:49;99746.81;;;10.04;100.00
55916;BME280;41826;53.246;-6.670;2023-03-21T03:02:16;99731.25;;;10.19;100.00
55916;BME280;41826;53.246;-6.670;2023-03-21T03:04:45;99741.09;;;10.01;100.00
55916;BME280;41826;53.246;-6.670;2023-03-21T03:07:16;99738.78;;;9.97;100.00
55916;BME280;41826;53.246;-6.670;2023-03-21T03:13:06;99722.41;;;9.95;100.00
55916;BME280;41826;53.246;-6.670;2023-03-21T03:15:59;99724.69;;;9.98;100.00
55916;BME280;41826;53.246;-6.670;2023-03-21T03:19:13;99719.47;;;9.98;100.00
55916;BME280;41826;53.246;-6.670;2023-03-21T03:27:03;99705.69;;;10.13;100.00
55916;BME280;41826;53.246;-6.670;2023-03-21T03:29:33;99705.22;;;9.93;100.00
55916;BME280;41826;53.246;-6.670;2023-03-21T03:32:04;99691.91;;;9.86;100.00
55916;BME280;41826;53.246;-6.670;2023-03-21T03:34:38;99692.09;;;10.01;100.00
55916;BME280;41826;53.246;-6.670;2023-03-21T03:37:07;99683.41;;;10.09;100.00
55916;BME280;41826;53.246;-6.670;2023-03-21T03:39:46;99683.41;;;10.09;100.00
55916;BME280;41826;53.246;-6.670;2023-03-21T03:42:17;99692.41;;;10.06;100.00
55916;BME280;41826;53.246;-6.670;2023-03-21T03:44:43;99686.34;;;10.06;100.00
55916;BME280;41826;53.246;-6.670;2023-03-21T03:47:11;99681.59;;;10.09;100.00
55916;BME280;41826;53.246;-6.670;2023-03-21T03:49:53;99679.47;;;10.13;100.00
55916;BME280;41826;53.246;-6.670;2023-03-21T03:52:25;99689.13;;;10.04;100.00
55916;BME280;41826;53.246;-6.670;2023-03-21T03:54:52;99684.38;;;9.99;100.00
55916;BME280;41826;53.246;-6.670;2023-03-21T03:57:18;99667.34;;;9.95;100.00
55916;BME280;41826;53.246;-6.670;2023-03-21T03:59:45;99663.59;;;9.98;100.00
55916;BME280;41826;53.246;-6.670;2023-03-21T04:02:11;99647.03;;;10.06;100.00
55916;BME280;41826;53.246;-6.670;2023-03-21T04:04:37;99640.13;;;10.05;100.00
55916;BME280;41826;53.246;-6.670;2023-03-21T04:07:03;99623.09;;;9.84;100.00
55916;BME280;41826;53.246;-6.670;2023-03-21T04:09:29;99614.91;;;10.04;100.00
55916;BME280;41826;53.246;-6.670;2023-03-21T04:11:55;99615.56;;;9.97;100.00
55916;BME280;41826;53.246;-6.670;2023-03-21T04:14:22;99615.91;;;10.03;100.00
55916;BME280;41826;53.246;-6.670;2023-03-21T04:16:47;99610.16;;;9.99;100.00
55916;BME280;41826;53.246;-6.670;2023-03-21T04:19:13;99604.94;;;9.83;100.00
55916;BME280;41826;53.246;-6.670;2023-03-21T04:21:40;99594.47;;;9.83;100.00
55916;BME280;41826;53.246;-6.670;2023-03-21T04:24:05;99583.78;;;9.92;100.00
55916;BME280;41826;53.246;-6.670;2023-03-21T04:26:31;99595.59;;;9.80;100.00
55916;BME280;41826;53.246;-6.670;2023-03-21T04:28:59;99579.84;;;9.96;100.00
55916;BME280;41826;53.246;-6.670;2023-03-21T04:31:28;99584.09;;;9.89;100.00
55916;BME280;41826;53.246;-6.670;2023-03-21T04:33:59;99572.44;;;10.00;100.00
55916;BME280;41826;53.246;-6.670;2023-03-21T04:36:25;99577.19;;;10.05;100.00
55916;BME280;41826;53.246;-6.670;2023-03-21T04:39:06;99579.19;;;10.03;100.00
55916;BME280;41826;53.246;-6.670;2023-03-21T04:41:37;99580.13;;;10.10;100.00
55916;BME280;41826;53.246;-6.670;2023-03-21T04:44:03;99575.56;;;10.04;100.00
55916;BME280;41826;53.246;-6.670;2023-03-21T04:46:28;99575.41;;;10.05;100.00
55916;BME280;41826;53.246;-6.670;2023-03-21T04:48:54;99583.44;;;9.87;100.00
55916;BME280;41826;53.246;-6.670;2023-03-21T04:51:19;99577.19;;;10.05;100.00
55916;BME280;41826;53.246;-6.670;2023-03-21T04:53:45;99577.53;;;10.02;100.00
55916;BME280;41826;53.246;-6.670;2023-03-21T04:56:14;99577.69;;;10.08;100.00
55916;BME280;41826;53.246;-6.670;2023-03-21T04:58:40;99576.75;;;9.93;100.00
55916;BME280;41826;53.246;-6.670;2023-03-21T05:01:06;99572.97;;;9.95;100.00
55916;BME280;41826;53.246;-6.670;2023-03-21T05:03:32;99573.47;;;9.91;100.00
55916;BME280;41826;53.246;-6.670;2023-03-21T05:06:08;99558.91;;;9.88;100.00
55916;BME280;41826;53.246;-6.670;2023-03-21T05:08:35;99560.19;;;10.01;100.00
55916;BME280;41826;53.246;-6.670;2023-03-21T05:11:01;99553.78;;;9.95;100.00
55916;BME280;41826;53.246;-6.670;2023-03-21T05:13:27;99547.41;;;9.89;100.00
55916;BME280;41826;53.246;-6.670;2023-03-21T05:15:52;99551.31;;;10.02;100.00
55916;BME280;41826;53.246;-6.670;2023-03-21T05:18:17;99564.78;;;9.90;100.00
55916;BME280;41826;53.246;-6.670;2023-03-21T05:20:50;99570.16;;;9.97;100.00
55916;BME280;41826;53.246;-6.670;2023-03-21T05:23:21;99560.84;;;9.94;100.00
55916;BME280;41826;53.246;-6.670;2023-03-21T05:25:47;99563.34;;;9.71;100.00
55916;BME280;41826;53.246;-6.670;2023-03-21T05:28:13;99550.41;;;9.78;100.00
55916;BME280;41826;53.246;-6.670;2023-03-21T05:30:43;99555.00;;;9.68;100.00
55916;BME280;41826;53.246;-6.670;2023-03-21T05:33:08;99542.84;;;9.83;100.00
55916;BME280;41826;53.246;-6.670;2023-03-21T05:35:34;99547.44;;;9.81;100.00
55916;BME280;41826;53.246;-6.670;2023-03-21T05:37:59;99542.56;;;9.70;100.00
55916;BME280;41826;53.246;-6.670;2023-03-21T05:40:25;99545.00;;;9.71;100.00
55916;BME280;41826;53.246;-6.670;2023-03-21T05:42:50;99548.91;;;9.84;100.00
55916;BME280;41826;53.246;-6.670;2023-03-21T05:45:15;99551.53;;;9.75;100.00
55916;BME280;41826;53.246;-6.670;2023-03-21T05:47:41;99547.94;;;9.76;100.00
55916;BME280;41826;53.246;-6.670;2023-03-21T05:50:07;99554.13;;;9.92;100.00
55916;BME280;41826;53.246;-6.670;2023-03-21T05:52:32;99556.91;;;9.98;100.00
55916;BME280;41826;53.246;-6.670;2023-03-21T05:54:58;99560.19;;;10.01;100.00
55916;BME280;41826;53.246;-6.670;2023-03-21T05:57:24;99566.41;;;10.08;100.00
55916;BME280;41826;53.246;-6.670;2023-03-21T05:59:50;99567.19;;;10.00;100.00
55916;BME280;41826;53.246;-6.670;2023-03-21T06:02:15;99569.97;;;10.15;100.00
55916;BME280;41826;53.246;-6.670;2023-03-21T06:04:41;99567.34;;;10.15;100.00
55916;BME280;41826;53.246;-6.670;2023-03-21T06:07:06;99578.78;;;10.22;100.00
55916;BME280;41826;53.246;-6.670;2023-03-21T06:09:32;99595.69;;;10.19;100.00
55916;BME280;41826;53.246;-6.670;2023-03-21T06:11:58;99608.97;;;10.18;100.00
55916;BME280;41826;53.246;-6.670;2023-03-21T06:14:24;99621.44;;;10.16;100.00
55916;BME280;41826;53.246;-6.670;2023-03-21T06:16:49;99624.53;;;10.28;100.00
55916;BME280;41826;53.246;-6.670;2023-03-21T06:19:15;99651.28;;;10.31;100.00
55916;BME280;41826;53.246;-6.670;2023-03-21T06:21:41;99658.81;;;10.34;100.00
55916;BME280;41826;53.246;-6.670;2023-03-21T06:24:06;99668.78;;;10.23;100.00
55916;BME280;41826;53.246;-6.670;2023-03-21T06:26:32;99674.84;;;10.39;100.00
55916;BME280;41826;53.246;-6.670;2023-03-21T06:28:57;99690.25;;;10.26;100.00
55916;BME280;41826;53.246;-6.670;2023-03-21T06:31:23;99707.66;;;10.11;100.00
55916;BME280;41826;53.246;-6.670;2023-03-21T06:33:49;99706.34;;;10.07;100.00
55916;BME280;41826;53.246;-6.670;2023-03-21T06:36:16;99720.59;;;10.12;100.00
55916;BME280;41826;53.246;-6.670;2023-03-21T06:38:41;99721.91;;;10.00;100.00
55916;BME280;41826;53.246;-6.670;2023-03-21T06:41:07;99727.16;;;9.92;100.00
55916;BME280;41826;53.246;-6.670;2023-03-21T06:43:33;99723.72;;;10.16;100.00
55916;BME280;41826;53.246;-6.670;2023-03-21T06:45:59;99729.59;;;10.02;100.00
55916;BME280;41826;53.246;-6.670;2023-03-21T06:48:25;99743.22;;;10.05;100.00
55916;BME280;41826;53.246;-6.670;2023-03-21T06:50:52;99750.28;;;10.13;100.00
55916;BME280;41826;53.246;-6.670;2023-03-21T06:53:19;99763.06;;;10.08;100.00
55916;BME280;41826;53.246;-6.670;2023-03-21T06:55:49;99769.94;;;10.17;100.00
55916;BME280;41826;53.246;-6.670;2023-03-21T06:58:15;99785.34;;;10.04;100.00
55916;BME280;41826;53.246;-6.670;2023-03-21T07:00:40;99787.44;;;10.00;100.00
55916;BME280;41826;53.246;-6.670;2023-03-21T07:03:06;99780.53;;;9.74;100.00
55916;BME280;41826;53.246;-6.670;2023-03-21T07:05:36;99780.44;;;10.01;100.00
55916;BME280;41826;53.246;-6.670;2023-03-21T07:08:03;99786.91;;;9.72;100.00
55916;BME280;41826;53.246;-6.670;2023-03-21T07:10:29;99777.56;;;9.69;100.00
55916;BME280;41826;53.246;-6.670;2023-03-21T07:12:54;99784.13;;;9.73;100.00
55916;BME280;41826;53.246;-6.670;2023-03-21T07:15:20;99782.78;;;9.61;100.00
55916;BME280;41826;53.246;-6.670;2023-03-21T07:17:46;99779.22;;;9.70;100.00
55916;BME280;41826;53.246;-6.670;2023-03-21T07:20:11;99783.13;;;9.66;100.00
55916;BME280;41826;53.246;-6.670;2023-03-21T07:22:37;99793.06;;;9.46;100.00
55916;BME280;41826;53.246;-6.670;2023-03-21T07:25:03;99782.31;;;9.66;100.00
55916;BME280;41826;53.246;-6.670;2023-03-21T07:27:29;99774.56;;;9.48;100.00
55916;BME280;41826;53.246;-6.670;2023-03-21T07:29:54;99768.66;;;9.38;100.00
55916;BME280;41826;53.246;-6.670;2023-03-21T07:32:19;99765.56;;;9.50;100.00
55916;BME280;41826;53.246;-6.670;2023-03-21T07:34:45;99752.16;;;9.62;100.00
55916;BME280;41826;53.246;-6.670;2023-03-21T07:37:10;99752.81;;;9.47;100.00
55916;BME280;41826;53.246;-6.670;2023-03-21T07:39:36;99759.84;;;9.55;100.00
55916;BME280;41826;53.246;-6.670;2023-03-21T07:42:02;99765.31;;;9.78;100.00
55916;BME280;41826;53.246;-6.670;2023-03-21T07:44:28;99775.47;;;9.73;100.00
55916;BME280;41826;53.246;-6.670;2023-03-21T07:46:54;99780.38;;;9.76;100.00
55916;BME280;41826;53.246;-6.670;2023-03-21T07:49:20;99791.38;;;9.88;100.00
55916;BME280;41826;53.246;-6.670;2023-03-21T07:51:45;99805.59;;;9.77;100.00
55916;BME280;41826;53.246;-6.670;2023-03-21T07:54:11;99809.22;;;9.76;100.00
55916;BME280;41826;53.246;-6.670;2023-03-21T07:56:36;99817.41;;;9.81;100.00
55916;BME280;41826;53.246;-6.670;2023-03-21T07:59:02;99822.66;;;9.89;100.00
55916;BME280;41826;53.246;-6.670;2023-03-21T08:01:30;99827.84;;;9.65;100.00
55916;BME280;41826;53.246;-6.670;2023-03-21T08:03:55;99833.50;;;9.94;100.00
55916;BME280;41826;53.246;-6.670;2023-03-21T08:06:21;99843.28;;;9.84;100.00
55916;BME280;41826;53.246;-6.670;2023-03-21T08:08:47;99831.34;;;9.90;100.00
55916;BME280;41826;53.246;-6.670;2023-03-21T08:11:13;99830.84;;;9.86;100.00
55916;BME280;41826;53.246;-6.670;2023-03-21T08:13:39;99833.81;;;9.91;100.00
55916;BME280;41826;53.246;-6.670;2023-03-21T08:16:06;99848.72;;;9.83;100.00
55916;BME280;41826;53.246;-6.670;2023-03-21T08:18:32;99846.91;;;9.83;100.00
55916;BME280;41826;53.246;-6.670;2023-03-21T08:20:57;99848.88;;;9.81;100.00
55916;BME280;41826;53.246;-6.670;2023-03-21T08:23:23;99855.19;;;10.21;100.00
55916;BME280;41826;53.246;-6.670;2023-03-21T08:25:52;99876.09;;;9.96;100.00
55916;BME280;41826;53.246;-6.670;2023-03-21T08:28:19;99880.66;;;9.86;100.00
55916;BME280;41826;53.246;-6.670;2023-03-21T08:30:44;99884.63;;;9.98;100.00
55916;BME280;41826;53.246;-6.670;2023-03-21T08:33:10;99886.94;;;10.10;100.00
55916;BME280;41826;53.246;-6.670;2023-03-21T08:35:37;99895.44;;;9.95;100.00
55916;BME280;41826;53.246;-6.670;2023-03-21T08:38:03;99889.63;;;10.18;100.00
55916;BME280;41826;53.246;-6.670;2023-03-21T08:40:29;99901.75;;;10.27;100.00
55916;BME280;41826;53.246;-6.670;2023-03-21T08:42:54;99916.22;;;10.31;100.00
55916;BME280;41826;53.246;-6.670;2023-03-21T08:45:20;99933.50;;;10.08;100.00
55916;BME280;41826;53.246;-6.670;2023-03-21T08:47:47;99942.13;;;10.43;100.00
55916;BME280;41826;53.246;-6.670;2023-03-21T08:50:18;99959.88;;;10.57;100.00
55916;BME280;41826;53.246;-6.670;2023-03-21T08:52:44;99969.09;;;10.85;100.00
55916;BME280;41826;53.246;-6.670;2023-03-21T08:55:11;99978.31;;;10.81;100.00
55916;BME280;41826;53.246;-6.670;2023-03-21T08:57:37;99996.69;;;10.81;100.00
55916;BME280;41826;53.246;-6.670;2023-03-21T09:00:07;100006.84;;;10.93;100.00
55916;BME280;41826;53.246;-6.670;2023-03-21T09:02:43;100008.69;;;11.17;100.00
55916;BME280;41826;53.246;-6.670;2023-03-21T09:05:10;100019.66;;;10.96;100.00
55916;BME280;41826;53.246;-6.670;2023-03-21T09:07:39;100030.69;;;10.99;100.00
55916;BME280;41826;53.246;-6.670;2023-03-21T09:10:06;100039.66;;;10.80;100.00
55916;BME280;41826;53.246;-6.670;2023-03-21T09:12:33;100031.84;;;11.30;100.00
55916;BME280;41826;53.246;-6.670;2023-03-21T09:14:58;100047.09;;;11.26;100.00
55916;BME280;41826;53.246;-6.670;2023-03-21T09:17:27;100048.06;;;11.00;100.00
55916;BME280;41826;53.246;-6.670;2023-03-21T09:19:53;100034.94;;;11.09;100.00
55916;BME280;41826;53.246;-6.670;2023-03-21T09:22:18;100034.63;;;11.20;100.00
55916;BME280;41826;53.246;-6.670;2023-03-21T09:24:46;100032.66;;;11.22;100.00
55916;BME280;41826;53.246;-6.670;2023-03-21T09:27:13;100039.72;;;10.97;100.00
55916;BME280;41826;53.246;-6.670;2023-03-21T09:29:40;100039.84;;;10.95;100.00
55916;BME280;41826;53.246;-6.670;2023-03-21T09:32:09;100039.03;;;11.11;100.00
55916;BME280;41826;53.246;-6.670;2023-03-21T09:34:37;100034.13;;;11.33;100.00
55916;BME280;41826;53.246;-6.670;2023-03-21T09:37:06;100045.47;;;11.41;100.00
55916;BME280;41826;53.246;-6.670;2023-03-21T09:39:40;100047.25;;;11.49;100.00
55916;BME280;41826;53.246;-6.670;2023-03-21T09:45:23;100048.09;;;11.33;100.00
55916;BME280;41826;53.246;-6.670;2023-03-21T09:47:52;100061.41;;;11.40;100.00
55916;BME280;41826;53.246;-6.670;2023-03-21T09:50:23;100056.47;;;11.37;100.00
55916;BME280;41826;53.246;-6.670;2023-03-21T09:53:05;100060.25;;;11.59;100.00
55916;BME280;41826;53.246;-6.670;2023-03-21T09:55:37;100067.63;;;11.31;100.00
55916;BME280;41826;53.246;-6.670;2023-03-21T09:58:25;100061.72;;;11.12;100.00
55916;BME280;41826;53.246;-6.670;2023-03-21T10:01:05;100053.66;;;10.97;100.00
55916;BME280;41826;53.246;-6.670;2023-03-21T10:03:36;100041.66;;;11.11;100.00
55916;BME280;41826;53.246;-6.670;2023-03-21T10:06:10;100046.44;;;11.07;100.00
55916;BME280;41826;53.246;-6.670;2023-03-21T10:08:42;100048.25;;;10.99;100.00
55916;BME280;41826;53.246;-6.670;2023-03-21T10:11:13;100048.88;;;11.01;100.00
55916;BME280;41826;53.246;-6.670;2023-03-21T10:13:55;100028.88;;;11.08;100.00
55916;BME280;41826;53.246;-6.670;2023-03-21T10:16:30;100022.47;;;11.02;100.00
55916;BME280;41826;53.246;-6.670;2023-03-21T10:18:59;100014.09;;;10.99;100.00
55916;BME280;41826;53.246;-6.670;2023-03-21T10:21:27;100003.59;;;11.15;100.00
55916;BME280;41826;53.246;-6.670;2023-03-21T10:23:55;100000.31;;;11.13;100.00
55916;BME280;41826;53.246;-6.670;2023-03-21T10:26:23;100000.47;;;11.28;100.00
55916;BME280;41826;53.246;-6.670;2023-03-21T10:28:53;100013.59;;;11.36;100.00
55916;BME280;41826;53.246;-6.670;2023-03-21T10:31:22;100008.97;;;11.46;100.00
55916;BME280;41826;53.246;-6.670;2023-03-21T10:33:53;100009.75;;;11.80;100.00
55916;BME280;41826;53.246;-6.670;2023-03-21T10:36:22;100031.09;;;11.85;100.00
55916;BME280;41826;53.246;-6.670;2023-03-21T10:38:59;100046.75;;;11.62;100.00
55916;BME280;41826;53.246;-6.670;2023-03-21T10:41:26;100062.38;;;11.63;100.00
55916;BME280;41826;53.246;-6.670;2023-03-21T10:44:11;100077.47;;;11.86;100.00
55916;BME280;41826;53.246;-6.670;2023-03-21T10:46:58;100075.13;;;12.07;100.00
55916;BME280;41826;53.246;-6.670;2023-03-21T10:49:29;100080.44;;;11.75;100.00
55916;BME280;41826;53.246;-6.670;2023-03-21T10:52:02;100097.53;;;11.87;100.00
55916;BME280;41826;53.246;-6.670;2023-03-21T10:54:31;100104.41;;;12.04;100.00
55916;BME280;41826;53.246;-6.670;2023-03-21T10:57:07;100103.78;;;11.94;100.00
55916;BME280;41826;53.246;-6.670;2023-03-21T10:59:46;100103.25;;;12.15;100.00
55916;BME280;41826;53.246;-6.670;2023-03-21T11:02:18;100112.00;;;11.83;100.00
55916;BME280;41826;53.246;-6.670;2023-03-21T11:04:44;100114.28;;;11.86;100.00
55916;BME280;41826;53.246;-6.670;2023-03-21T11:07:13;100123.50;;;11.74;100.00
55916;BME280;41826;53.246;-6.670;2023-03-21T11:09:54;100115.94;;;11.87;100.00
55916;BME280;41826;53.246;-6.670;2023-03-21T11:12:46;100114.94;;;11.80;100.00
55916;BME280;41826;53.246;-6.670;2023-03-21T11:15:29;100117.91;;;11.77;100.00
55916;BME280;41826;53.246;-6.670;2023-03-21T11:18:00;100110.69;;;11.62;100.00
55916;BME280;41826;53.246;-6.670;2023-03-21T11:20:43;100113.97;;;11.73;100.00
55916;BME280;41826;53.246;-6.670;2023-03-21T11:23:12;100105.09;;;11.90;100.00
55916;BME280;41826;53.246;-6.670;2023-03-21T11:25:40;100100.16;;;11.87;100.00
55916;BME280;41826;53.246;-6.670;2023-03-21T11:28:15;100090.63;;;12.10;100.00
55916;BME280;41826;53.246;-6.670;2023-03-21T11:30:50;100088.91;;;12.26;100.00
55916;BME280;41826;53.246;-6.670;2023-03-21T11:33:17;100113.25;;;12.28;100.00
55916;BME280;41826;53.246;-6.670;2023-03-21T11:36:41;100120.25;;;12.52;100.00
55916;BME280;41826;53.246;-6.670;2023-03-21T11:38:42;100127.56;;;12.33;100.00
55916;BME280;41826;53.246;-6.670;2023-03-21T11:41:07;100133.63;;;12.34;100.00
55916;BME280;41826;53.246;-6.670;2023-03-21T11:43:37;100141.56;;;12.26;100.00
55916;BME280;41826;53.246;-6.670;2023-03-21T11:48:28;100124.38;;;12.38;100.00
55916;BME280;41826;53.246;-6.670;2023-03-21T11:50:59;100112.97;;;12.93;100.00
55916;BME280;41826;53.246;-6.670;2023-03-21T11:53:39;100102.53;;;12.77;100.00
55916;BME280;41826;53.246;-6.670;2023-03-21T11:56:23;100118.03;;;12.72;100.00
55916;BME280;41826;53.246;-6.670;2023-03-21T12:02:03;100115.91;;;12.67;100.00
55916;BME280;41826;53.246;-6.670;2023-03-21T12:04:52;100114.84;;;12.45;100.00
55916;BME280;41826;53.246;-6.670;2023-03-21T12:10:22;100110.25;;;12.39;100.00
55916;BME280;41826;53.246;-6.670;2023-03-21T12:15:56;100094.06;;;12.58;100.00
55916;BME280;41826;53.246;-6.670;2023-03-21T12:21:20;100100.06;;;12.75;100.00
55916;BME280;41826;53.246;-6.670;2023-03-21T12:24:04;100108.41;;;12.48;100.00
55916;BME280;41826;53.246;-6.670;2023-03-21T12:26:34;100098.09;;;12.77;100.00
55916;BME280;41826;53.246;-6.670;2023-03-21T12:29:18;100102.09;;;12.65;100.00
55916;BME280;41826;53.246;-6.670;2023-03-21T12:40:08;100096.91;;;12.80;100.00
55916;BME280;41826;53.246;-6.670;2023-03-21T12:43:10;100101.78;;;12.60;100.00
55916;BME280;41826;53.246;-6.670;2023-03-21T12:45:36;100083.19;;;12.62;100.00
55916;BME280;41826;53.246;-6.670;2023-03-21T12:48:14;100101.59;;;12.14;100.00
55916;BME280;41826;53.246;-6.670;2023-03-21T12:50:43;100092.00;;;12.38;100.00
55916;BME280;41826;53.246;-6.670;2023-03-21T12:55:56;100091.94;;;12.54;100.00
55916;BME280;41826;53.246;-6.670;2023-03-21T12:58:23;100077.91;;;12.22;100.00
55916;BME280;41826;53.246;-6.670;2023-03-21T13:00:52;100069.78;;;12.40;100.00
55916;BME280;41826;53.246;-6.670;2023-03-21T13:05:55;100075.28;;;12.62;100.00
55916;BME280;41826;53.246;-6.670;2023-03-21T13:08:43;100060.59;;;12.36;100.00
55916;BME280;41826;53.246;-6.670;2023-03-21T13:11:14;100061.59;;;12.27;100.00
55916;BME280;41826;53.246;-6.670;2023-03-21T13:13:47;100055.03;;;12.31;100.00
55916;BME280;41826;53.246;-6.670;2023-03-21T13:21:27;100037.13;;;12.18;100.00
55916;BME280;41826;53.246;-6.670;2023-03-21T13:26:38;100015.09;;;12.19;100.00
55916;BME280;41826;53.246;-6.670;2023-03-21T13:29:21;100007.63;;;11.83;100.00
55916;BME280;41826;53.246;-6.670;2023-03-21T13:31:49;99991.44;;;12.11;100.00
55916;BME280;41826;53.246;-6.670;2023-03-21T13:34:15;99981.59;;;12.05;100.00
55916;BME280;41826;53.246;-6.670;2023-03-21T13:36:44;99982.25;;;12.07;100.00
55916;BME280;41826;53.246;-6.670;2023-03-21T13:39:23;99972.63;;;12.22;100.00
55916;BME280;41826;53.246;-6.670;2023-03-21T13:41:49;99963.50;;;12.41;100.00
55916;BME280;41826;53.246;-6.670;2023-03-21T13:44:37;99949.09;;;12.29;100.00
55916;BME280;41826;53.246;-6.670;2023-03-21T13:47:05;99924.38;;;12.61;100.00
55916;BME280;41826;53.246;-6.670;2023-03-21T13:55:29;99935.78;;;11.83;100.00
55916;BME280;41826;53.246;-6.670;2023-03-21T14:03:40;99910.56;;;12.36;100.00
55916;BME280;41826;53.246;-6.670;2023-03-21T14:06:07;99907.03;;;11.89;100.00
55916;BME280;41826;53.246;-6.670;2023-03-21T14:08:34;99908.34;;;11.85;100.00